Time;durP1;ratioP1;P1;durP2;ratioP2;P2;SDS_P1;SDS_P2;PMS_P1;PMS_P2;Temp;Humidity;BMP_temperature;BMP_pressure;BME280_temperature;BME280_humidity;BME280_pressure;Samples;Min_cycle;Max_cycle;Signal;HPM_P1;HPM_P2
2024/02/06 00:00:07;;;;;;;;;;;;;;;17.77;63.48;100864.59;7401051;19;1011;-77
2024/02/06 00:02:36;;;;;;;;;;;;;;;17.93;63.32;100858.03;7397058;19;1431;-70
2024/02/06 00:05:05;;;;;;;;;;;;;;;17.97;62.97;100871.03;7393112;19;1406;-70
2024/02/06 00:07:34;;;;;;;;;;;;;;;17.92;63.24;100864.34;7396424;19;1523;-70
2024/02/06 00:10:02;;;;;;;;;;;;;;;17.82;63.25;100874.91;7395576;19;1687;-77
2024/02/06 00:12:31;;;;;;;;;;;;;;;17.81;63.27;100884.78;7396568;19;1838;-77
2024/02/06 00:14:59;;;;;;;;;;;;;;;17.72;63.43;100877.50;7388947;19;2132;-70
2024/02/06 00:17:36;;;;;;;;;;;;;;;17.65;63.39;100889.69;7398623;19;1936;-75
2024/02/06 00:20:05;;;;;;;;;;;;;;;17.61;63.37;100897.09;7398806;19;1757;-77
2024/02/06 00:22:34;;;;;;;;;;;;;;;17.49;64.02;100880.19;7402083;19;1936;-76
2024/02/06 00:25:03;;;;;;;;;;;;;;;17.54;63.75;100879.81;7400803;19;1490;-69
2024/02/06 00:27:31;;;;;;;;;;;;;;;17.48;64.16;100886.50;7399237;19;1009;-70
2024/02/06 00:30:00;;;;;;;;;;;;;;;17.84;63.15;100870.31;7398349;19;1844;-77
2024/02/06 00:32:28;;;;;;;;;;;;;;;18.13;62.40;100894.69;7398231;19;1857;-70
2024/02/06 00:34:59;;;;;;;;;;;;;;;18.05;62.67;100892.66;7401859;19;1922;-70
2024/02/06 00:37:30;;;;;;;;;;;;;;;17.88;63.02;100887.81;7397722;19;1021;-77
2024/02/06 00:39:59;;;;;;;;;;;;;;;17.82;63.16;100890.97;7400235;19;1487;-70
2024/02/06 00:42:27;;;;;;;;;;;;;;;17.76;63.29;100900.34;7397591;19;1549;-70
2024/02/06 00:44:55;;;;;;;;;;;;;;;17.68;63.42;100878.72;7394565;19;1620;-70
2024/02/06 00:47:24;;;;;;;;;;;;;;;17.62;63.53;100880.06;7396809;19;1588;-70
2024/02/06 00:49:53;;;;;;;;;;;;;;;17.62;63.50;100887.22;7397841;19;999;-70
2024/02/06 00:52:23;;;;;;;;;;;;;;;17.61;63.51;100885.56;7396096;19;1945;-70
2024/02/06 00:54:52;;;;;;;;;;;;;;;17.62;63.56;100912.16;7396797;19;1011;-70
2024/02/06 00:57:21;;;;;;;;;;;;;;;17.52;63.86;100907.66;7397344;19;1596;-70
2024/02/06 00:59:50;;;;;;;;;;;;;;;17.75;63.50;100882.59;7399524;19;1836;-70
2024/02/06 01:02:18;;;;;;;;;;;;;;;17.86;63.40;100881.75;7403277;19;1592;-70
2024/02/06 01:04:47;;;;;;;;;;;;;;;18.01;63.05;100885.00;7401785;19;1831;-70
2024/02/06 01:07:15;;;;;;;;;;;;;;;17.82;63.40;100889.13;7399032;19;1603;-70
2024/02/06 01:09:47;;;;;;;;;;;;;;;17.70;63.35;100858.03;7398780;19;1501;-70
2024/02/06 01:12:15;;;;;;;;;;;;;;;17.68;63.48;100881.38;7400936;19;1845;-70
2024/02/06 01:14:44;;;;;;;;;;;;;;;17.68;63.56;100886.75;7394613;19;1689;-70
2024/02/06 01:17:13;;;;;;;;;;;;;;;17.64;63.81;100874.59;7402855;19;1826;-70
2024/02/06 01:19:45;;;;;;;;;;;;;;;17.65;63.74;100895.03;7398813;19;1619;-70
2024/02/06 01:22:13;;;;;;;;;;;;;;;17.60;63.73;100886.50;7403744;19;1469;-70
2024/02/06 01:24:42;;;;;;;;;;;;;;;17.57;63.77;100892.13;7399514;19;1419;-70
2024/02/06 01:27:13;;;;;;;;;;;;;;;17.45;64.20;100902.81;7402262;19;1026;-70
2024/02/06 01:29:42;;;;;;;;;;;;;;;17.75;63.42;100895.13;7399985;19;1390;-70
2024/02/06 01:32:11;;;;;;;;;;;;;;;17.92;63.21;100909.84;7402283;19;1432;-70
2024/02/06 01:34:39;;;;;;;;;;;;;;;18.08;62.92;100902.25;7401661;19;1922;-70
2024/02/06 01:37:08;;;;;;;;;;;;;;;17.94;62.96;100905.19;7402654;19;1361;-70
2024/02/06 01:39:38;;;;;;;;;;;;;;;17.77;63.37;100920.78;7401470;19;1474;-78
2024/02/06 01:42:07;;;;;;;;;;;;;;;17.66;63.58;100923.44;7402956;19;1712;-77
2024/02/06 01:44:38;;;;;;;;;;;;;;;17.65;63.59;100908.41;7402895;19;1081;-77
2024/02/06 01:47:10;;;;;;;;;;;;;;;17.64;63.73;100923.56;7402752;19;1601;-69
2024/02/06 01:49:44;;;;;;;;;;;;;;;17.48;63.94;100920.41;7402134;19;1139;-77
2024/02/06 01:52:14;;;;;;;;;;;;;;;17.50;64.14;100913.13;7403017;19;1946;-77
2024/02/06 01:54:43;;;;;;;;;;;;;;;17.51;63.74;100904.16;7399351;19;1834;-77
2024/02/06 01:57:12;;;;;;;;;;;;;;;17.49;64.03;100938.19;7403287;19;1189;-76
2024/02/06 01:59:43;;;;;;;;;;;;;;;17.72;63.54;100930.97;7400939;19;1767;-70
2024/02/06 02:02:12;;;;;;;;;;;;;;;17.88;63.37;100931.47;7402674;19;1520;-77
2024/02/06 02:04:41;;;;;;;;;;;;;;;17.83;63.39;100922.09;7398817;19;1673;-76
2024/02/06 02:07:09;;;;;;;;;;;;;;;17.81;63.35;100929.41;7400450;19;1843;-77
2024/02/06 02:09:38;;;;;;;;;;;;;;;17.64;63.65;100930.75;7400961;19;1716;-76
2024/02/06 02:12:06;;;;;;;;;;;;;;;17.68;63.47;100934.88;7400683;19;1070;-77
2024/02/06 02:14:35;;;;;;;;;;;;;;;17.62;63.55;100922.00;7396407;19;1846;-70
2024/02/06 02:17:06;;;;;;;;;;;;;;;17.63;63.49;100919.22;7387218;19;1968;-70
2024/02/06 02:19:35;;;;;;;;;;;;;;;17.58;63.55;100915.19;7400052;19;1533;-70
2024/02/06 02:22:06;;;;;;;;;;;;;;;17.45;63.80;100942.06;7400095;19;1224;-76
2024/02/06 02:24:35;;;;;;;;;;;;;;;17.40;64.24;100915.69;7402780;19;1462;-77
2024/02/06 02:27:04;;;;;;;;;;;;;;;17.80;63.19;100900.94;7401645;19;1235;-77
2024/02/06 02:29:33;;;;;;;;;;;;;;;18.06;62.62;100922.94;7399026;19;1789;-76
2024/02/06 02:32:04;;;;;;;;;;;;;;;18.13;62.46;100921.47;7400382;19;1110;-77
2024/02/06 02:34:34;;;;;;;;;;;;;;;18.34;61.94;100889.38;7400646;19;1850;-77
2024/02/06 02:37:02;;;;;;;;;;;;;;;18.40;61.60;100910.31;7403755;19;1495;-76
2024/02/06 02:39:35;;;;;;;;;;;;;;;18.50;61.34;100918.38;7400185;19;1541;-77
2024/02/06 02:42:06;;;;;;;;;;;;;;;18.49;61.53;100922.06;7397932;19;1643;-70
2024/02/06 02:44:35;;;;;;;;;;;;;;;18.52;61.39;100921.78;7397296;19;1086;-77
2024/02/06 02:47:05;;;;;;;;;;;;;;;18.47;61.48;100916.00;7399581;19;1915;-77
2024/02/06 02:49:34;;;;;;;;;;;;;;;18.15;62.25;100922.19;7400963;19;1113;-70
2024/02/06 02:52:02;;;;;;;;;;;;;;;17.97;62.67;100923.69;7398268;19;1701;-77
2024/02/06 02:54:30;;;;;;;;;;;;;;;17.89;62.89;100919.81;7399128;19;1905;-71
2024/02/06 02:56:59;;;;;;;;;;;;;;;17.81;63.04;100924.91;7398629;19;1926;-70
2024/02/06 02:59:30;;;;;;;;;;;;;;;17.73;63.04;100932.69;7400704;19;1208;-76
2024/02/06 03:01:58;;;;;;;;;;;;;;;17.55;63.58;100950.19;7400135;19;1668;-70
2024/02/06 03:04:27;;;;;;;;;;;;;;;17.34;64.24;100942.06;7397853;19;1718;-70
2024/02/06 03:06:55;;;;;;;;;;;;;;;17.28;64.28;100932.69;7400953;19;1564;-77
2024/02/06 03:09:23;;;;;;;;;;;;;;;17.33;64.29;100954.56;7401220;19;1673;-76
2024/02/06 03:11:52;;;;;;;;;;;;;;;17.43;63.94;100946.69;7401118;19;1003;-77
2024/02/06 03:14:20;;;;;;;;;;;;;;;17.36;64.25;100934.75;7399762;19;1866;-77
2024/02/06 03:16:51;;;;;;;;;;;;;;;17.69;63.55;100971.38;7389498;19;1824;-77
2024/02/06 03:19:20;;;;;;;;;;;;;;;17.83;63.10;100941.72;7399877;19;1241;-77
2024/02/06 03:21:48;;;;;;;;;;;;;;;17.93;62.93;100949.84;7396847;19;1593;-77
2024/02/06 03:24:17;;;;;;;;;;;;;;;17.87;63.09;100945.84;7398915;19;1567;-77
2024/02/06 03:26:46;;;;;;;;;;;;;;;17.74;63.13;100945.09;7398582;19;1612;-77
2024/02/06 03:29:14;;;;;;;;;;;;;;;17.69;63.22;100947.28;7398976;19;1827;-77
2024/02/06 03:31:44;;;;;;;;;;;;;;;17.68;63.19;100940.22;7401077;19;1003;-77
2024/02/06 03:34:15;;;;;;;;;;;;;;;17.64;63.27;100934.25;7398404;19;2067;-76
2024/02/06 03:36:44;;;;;;;;;;;;;;;17.56;63.38;100934.03;7399112;19;1583;-76
2024/02/06 03:39:12;;;;;;;;;;;;;;;17.53;63.65;100952.13;7399121;19;1134;-77
2024/02/06 03:41:41;;;;;;;;;;;;;;;17.42;63.92;100951.16;7397901;19;1848;-76
2024/02/06 03:44:17;;;;;;;;;;;;;;;17.49;63.89;100935.50;7399258;19;1403;-77
2024/02/06 03:46:45;;;;;;;;;;;;;;;17.76;63.15;100934.25;7399734;19;1634;-77
2024/02/06 03:49:16;;;;;;;;;;;;;;;17.91;62.99;100956.31;7397741;19;1671;-77
2024/02/06 03:51:45;;;;;;;;;;;;;;;17.87;63.31;100940.50;7396499;19;1519;-76
2024/02/06 03:54:13;;;;;;;;;;;;;;;17.74;63.18;100918.34;7397708;19;1899;-76
2024/02/06 03:56:42;;;;;;;;;;;;;;;17.65;63.46;100940.50;7398607;19;1847;-76
2024/02/06 03:59:10;;;;;;;;;;;;;;;17.59;63.33;100920.44;7398159;19;1455;-76
2024/02/06 04:01:39;;;;;;;;;;;;;;;17.49;63.79;100931.00;7399266;19;1413;-76
2024/02/06 04:04:07;;;;;;;;;;;;;;;17.97;62.85;100929.91;7396969;19;1402;-76
2024/02/06 04:06:38;;;;;;;;;;;;;;;18.66;60.79;100937.56;7398157;19;1454;-76
2024/02/06 04:09:07;;;;;;;;;;;;;;;18.87;60.38;100936.75;7340157;19;12980;-76
2024/02/06 04:11:35;;;;;;;;;;;;;;;18.79;60.65;100955.28;7396473;19;1338;-76
2024/02/06 04:14:04;;;;;;;;;;;;;;;18.37;61.92;100944.50;7397148;19;1853;-77
2024/02/06 04:16:35;;;;;;;;;;;;;;;18.13;62.21;100945.53;7385783;19;1583;-77
2024/02/06 04:19:05;;;;;;;;;;;;;;;18.08;62.43;100956.63;7395619;19;1167;-77
2024/02/06 04:21:39;;;;;;;;;;;;;;;18.29;62.24;100954.00;7396640;19;1491;-77
2024/02/06 04:24:10;;;;;;;;;;;;;;;18.93;60.32;100938.91;7396249;19;1593;-77
2024/02/06 04:26:38;;;;;;;;;;;;;;;18.71;60.77;100939.84;7398276;19;1659;-77
2024/02/06 04:29:07;;;;;;;;;;;;;;;18.54;61.47;100943.94;7399140;19;1014;-76
2024/02/06 04:31:35;;;;;;;;;;;;;;;18.69;61.02;100936.47;7398205;19;1865;-77
2024/02/06 04:34:04;;;;;;;;;;;;;;;18.73;60.96;100966.53;7403935;19;1871;-77
2024/02/06 04:36:33;;;;;;;;;;;;;;;18.71;61.05;100952.41;7404633;19;1803;-77
2024/02/06 04:39:04;;;;;;;;;;;;;;;18.68;60.99;100943.66;7406095;19;1367;-77
2024/02/06 04:41:32;;;;;;;;;;;;;;;18.77;61.05;100949.22;7402266;19;1380;-77
2024/02/06 04:44:01;;;;;;;;;;;;;;;18.76;60.92;100942.13;7405541;19;1065;-77
2024/02/06 04:46:29;;;;;;;;;;;;;;;18.72;60.90;100944.25;7405299;19;1592;-76
2024/02/06 04:48:59;;;;;;;;;;;;;;;18.75;61.04;100952.00;7404747;19;1039;-77
2024/02/06 04:51:30;;;;;;;;;;;;;;;18.74;61.00;100944.09;7402218;19;1932;-77
2024/02/06 04:53:59;;;;;;;;;;;;;;;18.69;60.99;100948.00;7405011;19;1829;-77
2024/02/06 04:56:30;;;;;;;;;;;;;;;18.78;60.82;100942.84;7402550;19;1740;-77
2024/02/06 04:59:00;;;;;;;;;;;;;;;18.77;60.82;100925.09;7405470;19;1236;-76
2024/02/06 05:01:29;;;;;;;;;;;;;;;18.81;60.65;100923.88;7403635;19;1655;-77
2024/02/06 05:03:57;;;;;;;;;;;;;;;18.75;60.84;100930.56;7403755;19;1122;-77
2024/02/06 05:06:25;;;;;;;;;;;;;;;18.71;60.81;100939.84;7404351;19;1965;-77
2024/02/06 05:08:54;;;;;;;;;;;;;;;18.82;60.87;100938.97;7403466;19;1141;-77
2024/02/06 05:11:22;;;;;;;;;;;;;;;18.92;60.66;100931.88;7403387;19;1939;-76
2024/02/06 05:13:53;;;;;;;;;;;;;;;18.92;60.51;100931.88;7402992;19;1896;-77
2024/02/06 05:16:22;;;;;;;;;;;;;;;18.99;60.51;100943.75;7391110;19;1391;-78
2024/02/06 05:18:50;;;;;;;;;;;;;;;18.93;60.58;100948.78;7403305;19;1877;-77
2024/02/06 05:21:18;;;;;;;;;;;;;;;19.03;60.54;100933.63;7403553;19;1679;-78
2024/02/06 05:23:47;;;;;;;;;;;;;;;19.03;60.39;100928.25;7403736;19;1610;-70
2024/02/06 05:26:16;;;;;;;;;;;;;;;19.04;60.41;100944.22;7403287;19;1532;-76
2024/02/06 05:28:45;;;;;;;;;;;;;;;19.17;60.63;100935.97;7397753;19;1581;-77
2024/02/06 05:31:16;;;;;;;;;;;;;;;19.12;60.34;100951.59;7402338;19;1312;-70
2024/02/06 05:33:45;;;;;;;;;;;;;;;19.02;60.14;100956.03;7399136;19;1854;-70
2024/02/06 05:36:14;;;;;;;;;;;;;;;18.94;60.72;100948.66;7402424;19;1229;-70
2024/02/06 05:38:42;;;;;;;;;;;;;;;18.88;60.61;100936.63;7400556;19;1345;-70
2024/02/06 05:41:13;;;;;;;;;;;;;;;18.96;60.52;100957.44;7399395;19;1815;-71
2024/02/06 05:43:42;;;;;;;;;;;;;;;19.13;60.46;100968.53;7400218;19;1489;-70
2024/02/06 05:46:11;;;;;;;;;;;;;;;18.98;59.14;100947.44;7399940;19;1287;-70
2024/02/06 05:48:42;;;;;;;;;;;;;;;19.05;59.01;100967.34;7400282;19;1354;-70
2024/02/06 05:51:11;;;;;;;;;;;;;;;19.10;58.76;100950.88;7399844;19;1309;-70
2024/02/06 05:53:45;;;;;;;;;;;;;;;19.16;58.57;100955.72;7397304;19;1359;-70
2024/02/06 05:56:13;;;;;;;;;;;;;;;19.16;58.54;100965.56;7399740;19;1190;-70
2024/02/06 05:58:42;;;;;;;;;;;;;;;19.24;58.15;100955.91;7398223;19;924;-70
2024/02/06 06:01:10;;;;;;;;;;;;;;;19.18;58.32;100968.97;7396173;19;1764;-70
2024/02/06 06:03:39;;;;;;;;;;;;;;;19.20;58.17;100951.78;7396818;19;1812;-70
2024/02/06 06:06:11;;;;;;;;;;;;;;;19.16;58.33;100971.81;7395659;19;1562;-70
2024/02/06 06:08:40;;;;;;;;;;;;;;;19.07;57.94;100964.53;7401093;19;1654;-70
2024/02/06 06:11:08;;;;;;;;;;;;;;;18.93;56.38;100960.34;7399988;19;1162;-71
2024/02/06 06:13:37;;;;;;;;;;;;;;;18.92;56.19;100969.38;7400685;19;1073;-70
2024/02/06 06:16:05;;;;;;;;;;;;;;;18.95;56.37;100974.47;7388825;19;1857;-70
2024/02/06 06:18:34;;;;;;;;;;;;;;;19.01;56.15;100989.19;7399826;19;1806;-70
2024/02/06 06:21:02;;;;;;;;;;;;;;;18.94;56.27;100988.88;7397872;19;1596;-70
2024/02/06 06:23:33;;;;;;;;;;;;;;;18.88;55.87;100971.47;7399153;19;1637;-70
2024/02/06 06:26:02;;;;;;;;;;;;;;;19.03;55.69;100976.50;7399667;19;1770;-71
2024/02/06 06:28:32;;;;;;;;;;;;;;;19.23;55.54;100975.63;7400940;19;1597;-71
2024/02/06 06:31:02;;;;;;;;;;;;;;;19.38;55.57;100969.97;7399761;19;1798;-70
2024/02/06 06:33:30;;;;;;;;;;;;;;;19.42;55.32;100968.72;7398124;19;2462;-70
2024/02/06 06:35:59;;;;;;;;;;;;;;;19.46;55.30;100967.47;7398559;19;1871;-70
2024/02/06 06:38:27;;;;;;;;;;;;;;;19.46;55.55;100964.78;7400958;19;1931;-70
2024/02/06 06:40:58;;;;;;;;;;;;;;;19.44;55.78;100967.59;7397149;19;1594;-70
2024/02/06 06:43:27;;;;;;;;;;;;;;;19.48;55.93;100965.50;7398810;19;1563;-70
2024/02/06 06:45:55;;;;;;;;;;;;;;;19.44;55.77;100954.16;7398466;19;1670;-70
2024/02/06 06:48:23;;;;;;;;;;;;;;;19.53;55.89;100957.88;7399977;19;1564;-70
2024/02/06 06:50:52;;;;;;;;;;;;;;;19.70;55.92;100975.19;7399335;19;1366;-77
2024/02/06 06:53:20;;;;;;;;;;;;;;;19.74;55.95;100960.53;7396992;19;1141;-70
2024/02/06 06:55:48;;;;;;;;;;;;;;;19.62;56.43;100972.31;7396395;19;1878;-70
2024/02/06 06:58:20;;;;;;;;;;;;;;;19.25;57.48;100997.81;7399302;19;1487;-70
2024/02/06 07:00:50;;;;;;;;;;;;;;;18.99;58.26;100997.34;7398368;19;1899;-70
2024/02/06 07:03:21;;;;;;;;;;;;;;;18.77;58.74;100989.41;7395414;19;1816;-70
2024/02/06 07:05:52;;;;;;;;;;;;;;;18.71;59.24;100987.22;7397893;19;1130;-70
2024/02/06 07:08:21;;;;;;;;;;;;;;;19.01;58.93;101000.75;7397107;19;1758;-70
2024/02/06 07:10:49;;;;;;;;;;;;;;;19.37;57.75;101001.25;7397887;19;1796;-70
2024/02/06 07:13:20;;;;;;;;;;;;;;;19.41;56.84;100989.28;7397362;19;1618;-70
2024/02/06 07:15:49;;;;;;;;;;;;;;;19.23;57.29;101001.59;7397252;19;1837;-70
2024/02/06 07:18:17;;;;;;;;;;;;;;;18.88;58.17;101016.19;7385860;19;1385;-70
2024/02/06 07:20:46;;;;;;;;;;;;;;;18.72;58.13;101008.53;7398111;19;1494;-70
2024/02/06 07:23:14;;;;;;;;;;;;;;;18.60;57.93;100994.34;7394800;19;1070;-71
2024/02/06 07:25:42;;;;;;;;;;;;;;;18.85;57.96;101008.38;7391007;19;1143;-70
2024/02/06 07:28:13;;;;;;;;;;;;;;;19.31;57.17;100995.59;7395987;19;1489;-71
2024/02/06 07:30:44;;;;;;;;;;;;;;;19.24;56.92;101006.84;7395631;19;1930;-70
2024/02/06 07:33:13;;;;;;;;;;;;;;;18.95;57.92;101006.63;7396954;19;1736;-71
2024/02/06 07:35:42;;;;;;;;;;;;;;;18.74;58.49;101000.34;7395671;19;1859;-71
2024/02/06 07:38:10;;;;;;;;;;;;;;;18.58;59.17;101015.03;7395683;19;1039;-71
2024/02/06 07:40:39;;;;;;;;;;;;;;;18.68;58.89;101010.63;7393660;19;1015;-71
2024/02/06 07:43:07;;;;;;;;;;;;;;;19.09;58.28;101016.19;7394284;19;1452;-70
2024/02/06 07:45:36;;;;;;;;;;;;;;;19.25;57.81;101026.44;7394991;19;1072;-71
2024/02/06 07:48:08;;;;;;;;;;;;;;;19.08;58.45;101019.88;7393064;19;1835;-71
2024/02/06 07:50:36;;;;;;;;;;;;;;;18.84;58.86;101020.94;7394706;19;1300;-70
2024/02/06 07:53:05;;;;;;;;;;;;;;;18.61;59.30;101008.56;7394359;19;1489;-70
2024/02/06 07:55:33;;;;;;;;;;;;;;;18.66;59.69;100999.19;7392835;19;1865;-71
2024/02/06 07:58:03;;;;;;;;;;;;;;;18.97;59.02;101004.66;7394976;19;2204;-70
2024/02/06 08:00:32;;;;;;;;;;;;;;;19.29;58.10;101009.13;7394098;19;1833;-71
2024/02/06 08:03:01;;;;;;;;;;;;;;;19.22;58.41;101026.72;7392883;19;1439;-70
2024/02/06 08:05:32;;;;;;;;;;;;;;;18.93;58.92;101027.34;7391570;19;1498;-70
2024/02/06 08:08:00;;;;;;;;;;;;;;;18.71;59.88;101022.91;7393274;19;1737;-70
2024/02/06 08:10:29;;;;;;;;;;;;;;;18.58;60.10;101020.41;7394524;19;1399;-69
2024/02/06 08:12:58;;;;;;;;;;;;;;;18.83;58.51;101015.69;7392848;19;1594;-70
2024/02/06 08:15:32;;;;;;;;;;;;;;;19.26;57.00;101004.03;7393331;19;1830;-77
2024/02/06 08:18:03;;;;;;;;;;;;;;;19.14;56.98;101002.38;7383786;19;1528;-78
2024/02/06 08:20:34;;;;;;;;;;;;;;;18.92;57.27;101006.91;7397723;19;2327;-80
2024/02/06 08:23:02;;;;;;;;;;;;;;;18.74;57.92;101019.09;7396945;19;1329;-80
2024/02/06 08:25:32;;;;;;;;;;;;;;;18.59;58.59;101006.00;7397228;19;1193;-71
2024/02/06 08:28:00;;;;;;;;;;;;;;;18.81;58.20;101012.31;7394772;19;1832;-71
2024/02/06 08:30:28;;;;;;;;;;;;;;;19.24;56.66;101012.22;7398270;19;1456;-79
2024/02/06 08:32:57;;;;;;;;;;;;;;;19.23;56.83;101020.38;7395760;19;1434;-80
2024/02/06 08:35:25;;;;;;;;;;;;;;;18.99;57.57;101018.78;7394592;19;1831;-71
2024/02/06 08:37:56;;;;;;;;;;;;;;;18.79;58.09;101009.75;7395156;19;1456;-80
2024/02/06 08:40:25;;;;;;;;;;;;;;;18.66;58.67;101001.88;7397220;19;1404;-79
2024/02/06 08:42:54;;;;;;;;;;;;;;;18.78;58.48;101020.56;7397502;19;1425;-80
2024/02/06 08:45:23;;;;;;;;;;;;;;;19.15;57.30;101017.50;7396137;19;1448;-71
2024/02/06 08:47:53;;;;;;;;;;;;;;;19.21;57.02;101019.66;7395442;19;1635;-78
2024/02/06 08:50:22;;;;;;;;;;;;;;;19.03;57.45;101024.75;7394434;19;1499;-79
2024/02/06 08:52:50;;;;;;;;;;;;;;;18.86;57.84;101024.34;7397778;19;1491;-78
2024/02/06 08:55:21;;;;;;;;;;;;;;;18.67;58.52;101022.28;7393158;19;1845;-71
2024/02/06 08:57:50;;;;;;;;;;;;;;;18.75;58.63;101031.53;7391089;19;1585;-81
2024/02/06 09:00:19;;;;;;;;;;;;;;;19.24;57.42;101022.09;7396872;19;1596;-80
2024/02/06 09:02:47;;;;;;;;;;;;;;;19.38;56.86;101032.47;7393955;19;1849;-74
2024/02/06 09:05:16;;;;;;;;;;;;;;;19.15;57.54;101029.06;7393373;19;1325;-72
2024/02/06 09:07:44;;;;;;;;;;;;;;;18.97;57.89;101036.00;7394315;19;1734;-80
2024/02/06 09:10:12;;;;;;;;;;;;;;;18.83;58.48;101032.63;7394294;19;1891;-80
2024/02/06 09:12:44;;;;;;;;;;;;;;;18.69;58.74;101031.06;7394426;19;1301;-80
2024/02/06 09:15:17;;;;;;;;;;;;;;;19.34;57.35;101039.09;7393845;19;1834;-71
2024/02/06 09:17:47;;;;;;;;;;;;;;;19.86;55.97;101028.38;7378130;19;1511;-72
2024/02/06 09:20:15;;;;;;;;;;;;;;;20.16;55.38;101024.81;7398242;19;1422;-72
2024/02/06 09:22:45;;;;;;;;;;;;;;;20.35;54.97;101026.72;7401561;19;1743;-72
2024/02/06 09:25:14;;;;;;;;;;;;;;;20.46;54.67;101023.88;7405381;19;1828;-72
2024/02/06 09:27:46;;;;;;;;;;;;;;;20.03;55.71;101026.88;7400846;19;1860;-80
2024/02/06 09:30:17;;;;;;;;;;;;;;;19.58;56.90;101027.22;7400896;19;1277;-72
2024/02/06 09:32:46;;;;;;;;;;;;;;;19.40;57.66;101027.00;7399843;19;996;-72
2024/02/06 09:35:14;;;;;;;;;;;;;;;19.80;56.79;100994.88;7402719;19;1845;-79
2024/02/06 09:37:42;;;;;;;;;;;;;;;20.18;55.80;101014.78;7401754;19;1497;-79
2024/02/06 09:40:11;;;;;;;;;;;;;;;20.39;55.09;100995.91;7397276;19;1592;-79
2024/02/06 09:42:40;;;;;;;;;;;;;;;20.00;56.17;101000.31;7399943;19;1553;-78
2024/02/06 09:45:11;;;;;;;;;;;;;;;19.66;57.23;101000.59;7401172;19;1749;-78
2024/02/06 09:47:42;;;;;;;;;;;;;;;19.45;57.54;100997.94;7398544;19;1811;-72
2024/02/06 09:50:11;;;;;;;;;;;;;;;19.80;56.77;100989.50;7398698;19;1233;-78
2024/02/06 09:52:43;;;;;;;;;;;;;;;20.15;56.13;100985.50;7400702;19;1561;-72
2024/02/06 09:55:14;;;;;;;;;;;;;;;20.48;55.42;100978.09;7397332;19;1834;-72
2024/02/06 09:57:43;;;;;;;;;;;;;;;20.69;54.85;100971.75;7399272;19;1617;-78
2024/02/06 10:00:16;;;;;;;;;;;;;;;20.63;55.04;100963.28;7398550;19;1607;-71
2024/02/06 10:02:45;;;;;;;;;;;;;;;20.48;54.74;100970.03;7398515;19;1634;-71
2024/02/06 10:05:15;;;;;;;;;;;;;;;20.46;54.88;100961.25;7397343;19;1733;-79
2024/02/06 10:07:44;;;;;;;;;;;;;;;20.44;54.66;100963.25;7399085;19;1330;-78
2024/02/06 10:10:13;;;;;;;;;;;;;;;20.40;55.06;100951.91;7399150;19;1621;-71
2024/02/06 10:12:42;;;;;;;;;;;;;;;20.35;55.11;100943.44;7397319;19;1472;-71
2024/02/06 10:15:12;;;;;;;;;;;;;;;20.39;54.93;100950.25;7397194;19;1754;-71
2024/02/06 10:17:43;;;;;;;;;;;;;;;20.41;54.89;100936.66;7388802;19;1635;-71
2024/02/06 10:20:12;;;;;;;;;;;;;;;20.43;55.04;100934.66;7399845;19;1557;-71
2024/02/06 10:22:41;;;;;;;;;;;;;;;20.47;54.75;100938.75;7398652;19;1676;-71
2024/02/06 10:25:11;;;;;;;;;;;;;;;20.49;54.90;100936.78;7396546;19;1751;-71
2024/02/06 10:27:40;;;;;;;;;;;;;;;20.44;55.07;100925.63;7397000;19;1503;-71
2024/02/06 10:30:10;;;;;;;;;;;;;;;20.49;54.93;100917.97;7395633;19;1691;-71
2024/02/06 10:32:38;;;;;;;;;;;;;;;20.46;55.15;100913.75;7393715;19;1462;-71
2024/02/06 10:35:11;;;;;;;;;;;;;;;20.55;55.08;100912.06;7396738;19;1594;-71
2024/02/06 10:37:40;;;;;;;;;;;;;;;20.59;55.03;100924.25;7395848;19;1850;-71
2024/02/06 10:40:09;;;;;;;;;;;;;;;20.65;55.17;100912.94;7397480;19;1635;-71
2024/02/06 10:42:37;;;;;;;;;;;;;;;20.66;55.13;100886.91;7399700;19;1656;-71
2024/02/06 10:45:08;;;;;;;;;;;;;;;20.68;55.22;100892.16;7398307;19;1122;-71
2024/02/06 10:47:36;;;;;;;;;;;;;;;20.70;55.56;100887.47;7397462;19;1636;-71
2024/02/06 10:50:05;;;;;;;;;;;;;;;20.74;55.58;100895.09;7394756;19;1531;-71
2024/02/06 10:52:36;;;;;;;;;;;;;;;20.66;55.86;100860.88;7396808;19;1840;-71
2024/02/06 10:55:07;;;;;;;;;;;;;;;20.64;55.94;100852.13;7396340;19;1222;-71
2024/02/06 10:57:39;;;;;;;;;;;;;;;20.71;56.08;100862.28;7393459;19;1848;-71
2024/02/06 11:00:11;;;;;;;;;;;;;;;20.81;55.78;100849.66;7395067;19;1601;-73
2024/02/06 11:02:43;;;;;;;;;;;;;;;20.79;55.76;100840.91;7399395;19;1510;-73
2024/02/06 11:05:14;;;;;;;;;;;;;;;20.72;55.95;100832.59;7395878;19;1957;-80
2024/02/06 11:07:50;;;;;;;;;;;;;;;20.82;55.75;100846.00;7398159;19;1680;-77
2024/02/06 11:10:21;;;;;;;;;;;;;;;20.86;55.66;100831.28;7398083;19;1774;-77
2024/02/06 11:12:51;;;;;;;;;;;;;;;20.79;55.79;100832.84;7395972;19;1711;-77
2024/02/06 11:15:20;;;;;;;;;;;;;;;20.78;55.90;100818.56;7397326;19;1071;-76
2024/02/06 11:17:48;;;;;;;;;;;;;;;20.71;55.85;100824.66;7384225;19;1855;-77
2024/02/06 11:20:22;;;;;;;;;;;;;;;20.78;55.77;100820.41;7400812;19;1054;-77
2024/02/06 11:22:55;;;;;;;;;;;;;;;20.81;55.53;100795.91;7400199;19;930;-76
2024/02/06 11:25:27;;;;;;;;;;;;;;;20.86;55.69;100818.66;7399221;19;1712;-77
2024/02/06 11:27:57;;;;;;;;;;;;;;;20.82;55.76;100824.50;7399613;19;1451;-76
2024/02/06 11:30:26;;;;;;;;;;;;;;;20.84;55.78;100820.66;7400161;19;1487;-76
2024/02/06 11:33:07;;;;;;;;;;;;;;;20.79;55.57;100822.09;7395784;19;1801;-76
2024/02/06 11:35:36;;;;;;;;;;;;;;;20.73;55.46;100790.44;7400537;19;1388;-77
2024/02/06 11:38:08;;;;;;;;;;;;;;;20.75;55.33;100804.56;7396335;19;971;-76
2024/02/06 11:40:36;;;;;;;;;;;;;;;20.32;55.37;100793.31;7399422;19;1370;-77
2024/02/06 11:43:06;;;;;;;;;;;;;;;19.95;55.84;100791.34;7397332;19;1454;-76
2024/02/06 11:45:36;;;;;;;;;;;;;;;19.73;56.45;100800.53;7397686;19;1509;-76
2024/02/06 11:48:08;;;;;;;;;;;;;;;19.61;56.57;100806.97;7398739;19;1868;-76
2024/02/06 11:50:43;;;;;;;;;;;;;;;19.51;56.95;100795.38;7396289;19;1114;-76
2024/02/06 11:53:17;;;;;;;;;;;;;;;19.45;57.15;100791.41;7400419;19;997;-76
2024/02/06 11:55:46;;;;;;;;;;;;;;;19.81;56.46;100799.84;7399557;19;1641;-76
2024/02/06 11:58:15;;;;;;;;;;;;;;;20.07;55.75;100773.28;7397663;19;1432;-76
2024/02/06 12:00:44;;;;;;;;;;;;;;;19.78;56.40;100771.44;7396779;19;1573;-76
2024/02/06 12:03:14;;;;;;;;;;;;;;;19.60;57.04;100770.41;7398278;19;1215;-76
2024/02/06 12:05:43;;;;;;;;;;;;;;;19.50;57.08;100775.78;7398305;19;1596;-76
2024/02/06 12:08:15;;;;;;;;;;;;;;;19.43;57.36;100755.84;7397095;19;1507;-70
2024/02/06 12:10:43;;;;;;;;;;;;;;;19.78;56.54;100747.31;7393959;19;1978;-70
2024/02/06 12:13:12;;;;;;;;;;;;;;;20.07;55.86;100749.13;7395642;19;1520;-70
2024/02/06 12:15:41;;;;;;;;;;;;;;;19.91;56.28;100743.47;7397548;19;1113;-71
2024/02/06 12:18:11;;;;;;;;;;;;;;;19.71;56.51;100747.97;7382676;19;1939;-69
2024/02/06 12:20:40;;;;;;;;;;;;;;;19.50;56.90;100740.91;7393053;19;1538;-70
2024/02/06 12:23:11;;;;;;;;;;;;;;;19.39;57.46;100735.66;7398198;19;1346;-71
2024/02/06 12:25:43;;;;;;;;;;;;;;;19.67;56.94;100744.72;7396647;19;1187;-70
2024/02/06 12:28:15;;;;;;;;;;;;;;;20.01;56.08;100736.25;7397110;19;932;-70
2024/02/06 12:30:44;;;;;;;;;;;;;;;19.87;56.27;100737.53;7397476;19;1115;-70
2024/02/06 12:33:12;;;;;;;;;;;;;;;19.65;56.86;100735.97;7393301;19;1558;-70
2024/02/06 12:35:41;;;;;;;;;;;;;;;19.46;57.28;100739.50;7392729;19;928;-70
2024/02/06 12:38:11;;;;;;;;;;;;;;;19.31;57.87;100751.59;7393839;19;1886;-69
2024/02/06 12:40:43;;;;;;;;;;;;;;;19.54;57.07;100739.63;7396656;19;1493;-70
2024/02/06 12:43:12;;;;;;;;;;;;;;;19.94;56.21;100724.41;7395801;19;1346;-69
2024/02/06 12:45:42;;;;;;;;;;;;;;;19.60;56.90;100722.13;7397159;19;1739;-70
2024/02/06 12:48:11;;;;;;;;;;;;;;;19.40;57.58;100735.53;7394626;19;1589;-70
2024/02/06 12:50:41;;;;;;;;;;;;;;;19.14;57.93;100743.22;7393396;19;1146;-70
2024/02/06 12:53:10;;;;;;;;;;;;;;;19.14;58.23;100732.50;7399892;19;1039;-70
2024/02/06 12:55:39;;;;;;;;;;;;;;;19.57;56.95;100741.19;7403579;19;1096;-70
2024/02/06 12:58:10;;;;;;;;;;;;;;;19.73;56.51;100730.75;7400601;19;1848;-70